createdAt,value
2018-03-22T00:00:01.022Z,-1.90
2018-03-22T00:02:29.315Z,-1.92
2018-03-22T00:04:58.384Z,-1.96
2018-03-22T00:07:26.811Z,-1.98
2018-03-22T00:09:55.225Z,-2.00
2018-03-22T00:12:24.427Z,-1.99
2018-03-22T00:14:52.745Z,-1.97
2018-03-22T00:17:21.173Z,-1.97
2018-03-22T00:19:49.670Z,-1.98
2018-03-22T00:22:29.870Z,-2.00
2018-03-22T00:24:58.170Z,-2.03
2018-03-22T00:27:26.560Z,-2.03
2018-03-22T00:29:54.939Z,-2.05
2018-03-22T00:32:25.179Z,-2.05
2018-03-22T00:34:56.961Z,-2.07
2018-03-22T00:37:25.491Z,-2.12
2018-03-22T00:39:54.209Z,-2.13
2018-03-22T00:42:22.518Z,-2.12
2018-03-22T00:44:50.875Z,-2.14
2018-03-22T00:47:19.234Z,-2.15
2018-03-22T00:49:49.344Z,-2.19
2018-03-22T00:52:19.496Z,-2.23
2018-03-22T00:54:47.854Z,-2.20
2018-03-22T00:57:16.207Z,-2.21
2018-03-22T00:59:44.586Z,-2.25
2018-03-22T01:02:15.547Z,-2.27
2018-03-22T01:04:44.111Z,-2.33
2018-03-22T01:07:14.123Z,-2.42
2018-03-22T01:09:44.334Z,-2.41
2018-03-22T01:12:14.690Z,-2.38
2018-03-22T01:14:47.170Z,-2.38
2018-03-22T01:17:15.617Z,-2.39
2018-03-22T01:19:43.910Z,-2.39
2018-03-22T01:22:12.285Z,-2.41
2018-03-22T01:24:41.499Z,-2.44
2018-03-22T01:27:12.920Z,-2.43
2018-03-22T01:29:42.454Z,-2.45
2018-03-22T01:32:11.068Z,-2.48
2018-03-22T01:34:39.386Z,-2.49
2018-03-22T01:37:07.828Z,-2.48
2018-03-22T01:39:38.904Z,-2.49
2018-03-22T01:42:07.706Z,-2.49
2018-03-22T01:44:36.107Z,-2.49
2018-03-22T01:47:04.518Z,-2.51
2018-03-22T01:49:32.912Z,-2.53
2018-03-22T01:52:04.449Z,-2.56
2018-03-22T01:54:33.128Z,-2.57
2018-03-22T01:57:01.426Z,-2.56
2018-03-22T01:59:29.776Z,-2.58
2018-03-22T02:01:58.314Z,-2.60
2018-03-22T02:04:29.224Z,-2.60
2018-03-22T02:06:57.656Z,-2.61
2018-03-22T02:09:26.101Z,-2.62
2018-03-22T02:11:54.520Z,-2.66
2018-03-22T02:14:23.100Z,-2.68
2018-03-22T02:16:59.009Z,-2.68
2018-03-22T02:19:27.326Z,-2.69
2018-03-22T02:21:55.689Z,-2.72
2018-03-22T02:24:24.015Z,-2.72
2018-03-22T02:26:52.404Z,-2.72
2018-03-22T02:29:20.723Z,-2.73
2018-03-22T02:31:49.223Z,-2.75
2018-03-22T02:34:17.710Z,-2.77
2018-03-22T02:36:47.623Z,-2.77
2018-03-22T02:39:16.116Z,-2.77
2018-03-22T02:41:46.011Z,-2.77
2018-03-22T02:44:14.388Z,-2.79
2018-03-22T02:46:46.759Z,-2.79
2018-03-22T02:49:15.362Z,-2.81
2018-03-22T02:51:43.723Z,-2.84
2018-03-22T02:54:16.811Z,-2.82
2018-03-22T02:56:45.398Z,-2.83
2018-03-22T02:59:14.493Z,-2.87
2018-03-22T03:01:44.713Z,-2.90
2018-03-22T03:04:13.209Z,-2.90
2018-03-22T03:06:41.595Z,-2.90
2018-03-22T03:09:09.966Z,-2.90
2018-03-22T03:11:38.349Z,-2.90
2018-03-22T03:14:06.824Z,-2.90
2018-03-22T03:16:37.454Z,-2.92
2018-03-22T03:19:06.422Z,-2.93
2018-03-22T03:21:35.505Z,-2.97
2018-03-22T03:24:03.907Z,-2.99
2018-03-22T03:26:32.442Z,-2.99
2018-03-22T03:29:01.546Z,-3.00
2018-03-22T03:31:29.888Z,-3.01
2018-03-22T03:34:01.113Z,-3.03
2018-03-22T03:36:29.610Z,-3.04
2018-03-22T03:38:58.125Z,-3.05
2018-03-22T03:41:27.353Z,-3.03
2018-03-22T03:43:55.962Z,-3.03
2018-03-22T03:46:26.080Z,-3.04
2018-03-22T03:48:56.043Z,-3.04
2018-03-22T03:51:24.469Z,-3.05
2018-03-22T03:53:54.574Z,-3.07
2018-03-22T03:56:22.967Z,-3.10
2018-03-22T03:58:52.081Z,-3.10
2018-03-22T04:01:20.506Z,-3.09
2018-03-22T04:03:51.658Z,-3.09
2018-03-22T04:06:20.748Z,-3.11
2018-03-22T04:08:49.896Z,-3.11
2018-03-22T04:11:18.234Z,-3.10
2018-03-22T04:13:46.615Z,-3.12
2018-03-22T04:16:15.207Z,-3.13
2018-03-22T04:18:44.711Z,-3.13
2018-03-22T04:21:13.316Z,-3.16
2018-03-22T04:23:41.901Z,-3.16
2018-03-22T04:26:12.164Z,-3.17
2018-03-22T04:28:41.426Z,-3.18
2018-03-22T04:31:13.854Z,-3.18
2018-03-22T04:33:42.392Z,-3.17
2018-03-22T04:36:11.271Z,-3.18
2018-03-22T04:38:39.647Z,-3.18
2018-03-22T04:41:08.733Z,-3.18
2018-03-22T04:43:37.272Z,-3.19
2018-03-22T04:46:05.772Z,-3.20
2018-03-22T04:48:34.306Z,-3.21
2018-03-22T04:51:05.478Z,-3.19
2018-03-22T04:53:34.117Z,-3.20
2018-03-22T04:56:02.612Z,-3.23
2018-03-22T04:58:31.206Z,-3.24
2018-03-22T05:00:59.680Z,-3.22
2018-03-22T05:03:28.458Z,-3.23
2018-03-22T05:05:57.028Z,-3.21
2018-03-22T05:08:27.604Z,-3.19
2018-03-22T05:10:58.822Z,-3.16
2018-03-22T05:13:30.290Z,-3.18
2018-03-22T05:16:00.603Z,-3.19
2018-03-22T05:18:33.217Z,-3.18
2018-03-22T05:21:03.359Z,-3.19
2018-03-22T05:23:33.476Z,-3.20
2018-03-22T05:26:01.966Z,-3.15
2018-03-22T05:28:31.283Z,-3.14
2018-03-22T05:31:00.412Z,-3.14
2018-03-22T05:33:28.896Z,-3.11
2018-03-22T05:35:59.399Z,-3.10
2018-03-22T05:38:32.815Z,-3.08
2018-03-22T05:41:03.020Z,-3.07
2018-03-22T05:43:32.745Z,-3.06
2018-03-22T05:46:02.970Z,-3.04
2018-03-22T05:48:31.501Z,-3.02
2018-03-22T05:51:01.677Z,-3.03
2018-03-22T05:53:30.089Z,-3.02
2018-03-22T05:55:58.607Z,-3.02
2018-03-22T05:58:26.958Z,-3.01
2018-03-22T06:00:59.000Z,-2.96
2018-03-22T06:03:27.629Z,-2.94
2018-03-22T06:05:56.018Z,-2.91
2018-03-22T06:08:27.520Z,-2.87
2018-03-22T06:10:55.955Z,-2.82
2018-03-22T06:13:24.423Z,-2.77
2018-03-22T06:15:52.809Z,-2.74
2018-03-22T06:18:23.025Z,-2.74
2018-03-22T06:20:56.417Z,-2.70
2018-03-22T06:23:24.895Z,-2.66
2018-03-22T06:25:53.557Z,-2.63
2018-03-22T06:28:22.068Z,-2.61
2018-03-22T06:30:50.603Z,-2.55
2018-03-22T06:33:19.083Z,-2.49
2018-03-22T06:35:49.239Z,-2.43
2018-03-22T06:38:17.670Z,-2.38
2018-03-22T06:40:46.168Z,-2.39
2018-03-22T06:43:14.549Z,-2.37
2018-03-22T06:45:45.121Z,-2.28
2018-03-22T06:48:15.247Z,-2.24
2018-03-22T06:50:47.179Z,-2.18
2018-03-22T06:53:15.608Z,-2.11
2018-03-22T06:55:44.190Z,-2.01
2018-03-22T06:58:12.621Z,-1.93
2018-03-22T07:00:41.003Z,-1.89
2018-03-22T07:03:09.322Z,-1.84
2018-03-22T07:05:37.677Z,-1.76
2018-03-22T07:08:06.931Z,-1.65
2018-03-22T07:10:36.867Z,-1.57
2018-03-22T07:13:05.213Z,-1.55
2018-03-22T07:15:33.523Z,-1.49
2018-03-22T07:18:01.940Z,-1.42
2018-03-22T07:20:30.419Z,-1.40
2018-03-22T07:22:58.819Z,-1.39
2018-03-22T07:25:27.273Z,-1.31
2018-03-22T07:27:55.612Z,-1.24
2018-03-22T07:30:24.172Z,-1.13
2018-03-22T07:32:54.265Z,-1.06
2018-03-22T07:35:22.807Z,-0.94
2018-03-22T07:37:53.361Z,-0.90
2018-03-22T07:40:21.776Z,-0.81
2018-03-22T07:42:55.825Z,-0.68
2018-03-22T07:45:26.299Z,-0.59
2018-03-22T07:47:54.791Z,-0.48
2018-03-22T07:50:23.101Z,-0.42
2018-03-22T07:52:51.545Z,-0.29
2018-03-22T07:55:19.968Z,-0.10
2018-03-22T07:57:50.384Z,0.02
2018-03-22T08:00:20.913Z,0.09
2018-03-22T08:02:49.334Z,0.15
2018-03-22T08:05:17.781Z,0.31
2018-03-22T08:07:47.890Z,0.39
2018-03-22T08:10:16.271Z,0.47
2018-03-22T08:12:44.657Z,0.44
2018-03-22T08:15:13.068Z,0.49
2018-03-22T08:17:41.613Z,0.63
2018-03-22T08:20:10.217Z,0.80
2018-03-22T08:22:38.601Z,0.92
2018-03-22T08:25:06.941Z,0.89
2018-03-22T08:27:35.330Z,0.93
2018-03-22T08:30:03.871Z,0.97
2018-03-22T08:32:32.321Z,0.97
2018-03-22T08:35:00.709Z,1.02
2018-03-22T08:37:29.025Z,1.09
2018-03-22T08:39:57.460Z,1.10
2018-03-22T08:42:25.840Z,1.22
2018-03-22T08:44:54.270Z,1.30
2018-03-22T08:49:52.264Z,1.46
2018-03-22T08:54:50.327Z,1.48
2018-03-22T08:57:20.736Z,1.52
2018-03-22T08:59:49.803Z,1.60
2018-03-22T09:02:18.271Z,1.65
2018-03-22T09:04:46.576Z,1.75
2018-03-22T09:07:15.712Z,1.81
2018-03-22T09:09:44.070Z,1.84
2018-03-22T09:12:12.574Z,1.93
2018-03-22T09:14:41.139Z,2.09
2018-03-22T09:17:12.286Z,2.05
2018-03-22T09:19:42.780Z,2.11
2018-03-22T09:22:13.524Z,2.24
2018-03-22T09:24:42.050Z,2.38
2018-03-22T09:27:10.339Z,2.32
2018-03-22T09:29:38.648Z,2.40
2018-03-22T09:32:06.960Z,2.53
2018-03-22T09:34:35.258Z,2.68
2018-03-22T09:37:03.620Z,2.76
2018-03-22T09:39:32.049Z,2.80
2018-03-22T09:42:00.365Z,2.98
2018-03-22T09:44:28.686Z,2.96
2018-03-22T09:46:57.092Z,2.89
2018-03-22T09:49:25.636Z,2.84
2018-03-22T09:51:53.991Z,2.83
2018-03-22T09:54:22.331Z,2.92
2018-03-22T09:56:50.839Z,3.13
2018-03-22T09:59:19.281Z,3.24
2018-03-22T10:01:47.829Z,3.44
2018-03-22T10:04:17.136Z,3.46
2018-03-22T10:06:45.566Z,3.43
2018-03-22T10:09:14.104Z,3.41
2018-03-22T10:11:43.507Z,3.44
2018-03-22T10:14:11.882Z,3.61
2018-03-22T10:16:40.982Z,3.74
2018-03-22T10:19:09.326Z,3.91
2018-03-22T10:21:39.225Z,4.07
2018-03-22T10:24:09.909Z,4.02
2018-03-22T10:26:39.999Z,4.00
2018-03-22T10:29:08.445Z,4.01
2018-03-22T10:31:37.907Z,3.96
2018-03-22T10:34:09.117Z,3.92
2018-03-22T10:36:37.588Z,3.82
2018-03-22T10:39:06.015Z,3.65
2018-03-22T10:41:34.612Z,3.69
2018-03-22T10:44:02.882Z,3.87
2018-03-22T10:46:31.206Z,4.06
2018-03-22T10:49:01.387Z,4.08
2018-03-22T10:51:29.765Z,4.12
2018-03-22T10:53:58.335Z,4.30
2018-03-22T10:56:26.657Z,4.48
2018-03-22T10:58:55.661Z,4.47
2018-03-22T11:01:29.752Z,4.60
2018-03-22T11:03:58.423Z,4.52
2018-03-22T11:06:27.566Z,4.54
2018-03-22T11:08:55.906Z,4.40
2018-03-22T11:11:24.258Z,4.42
2018-03-22T11:13:52.575Z,4.56
2018-03-22T11:16:20.931Z,4.72
2018-03-22T11:18:49.320Z,4.95
2018-03-22T11:21:17.684Z,5.08
2018-03-22T11:23:46.025Z,5.12
2018-03-22T11:26:14.408Z,5.09
2018-03-22T11:28:44.577Z,5.11
2018-03-22T11:31:14.547Z,5.05
2018-03-22T11:33:43.019Z,4.87
2018-03-22T11:36:12.044Z,4.84
2018-03-22T11:38:40.353Z,4.75
2018-03-22T11:41:08.741Z,4.75
2018-03-22T11:43:37.054Z,4.77
2018-03-22T11:46:05.391Z,4.72
2018-03-22T11:48:33.847Z,4.71
2018-03-22T11:51:02.121Z,4.76
2018-03-22T11:53:33.388Z,4.63
2018-03-22T11:56:05.669Z,4.55
2018-03-22T11:58:36.506Z,4.61
2018-03-22T12:01:04.970Z,4.73
2018-03-22T12:03:33.316Z,4.85
2018-03-22T12:06:01.627Z,5.04
2018-03-22T12:08:30.118Z,5.19
2018-03-22T12:10:58.469Z,5.06
2018-03-22T12:13:27.802Z,5.11
2018-03-22T12:15:58.967Z,5.22
2018-03-22T12:18:27.312Z,5.24
2018-03-22T12:20:56.725Z,5.18
2018-03-22T12:23:25.035Z,5.22
2018-03-22T12:25:53.385Z,5.38
2018-03-22T12:28:21.808Z,5.40
2018-03-22T12:30:50.121Z,5.44
2018-03-22T12:33:19.563Z,5.49
2018-03-22T12:35:48.634Z,5.62
2018-03-22T12:38:17.000Z,5.68
2018-03-22T12:40:46.123Z,5.59
2018-03-22T12:43:14.604Z,5.62
2018-03-22T12:45:42.922Z,5.48
2018-03-22T12:48:14.067Z,5.46
2018-03-22T12:50:42.458Z,5.42
2018-03-22T12:53:13.406Z,5.41
2018-03-22T12:55:41.793Z,5.35
2018-03-22T12:58:10.145Z,5.33
2018-03-22T13:00:40.294Z,5.15
2018-03-22T13:03:09.904Z,5.20
2018-03-22T13:05:39.961Z,5.21
2018-03-22T13:08:08.744Z,5.17
2018-03-22T13:10:37.195Z,5.05
2018-03-22T13:13:05.591Z,5.08
2018-03-22T13:15:36.685Z,5.16
2018-03-22T13:18:06.683Z,5.11
2018-03-22T13:20:35.064Z,5.23
2018-03-22T13:23:03.495Z,5.28
2018-03-22T13:25:34.529Z,5.38
2018-03-22T13:28:04.240Z,5.55
2018-03-22T13:30:34.151Z,5.55
2018-03-22T13:33:02.574Z,5.54
2018-03-22T13:35:30.991Z,5.57
2018-03-22T13:37:59.371Z,5.55
2018-03-22T13:40:28.591Z,5.63
2018-03-22T13:42:57.687Z,5.76
2018-03-22T13:45:27.797Z,5.81
2018-03-22T13:47:56.157Z,5.98
2018-03-22T13:50:24.702Z,6.18
2018-03-22T13:52:53.759Z,6.36
2018-03-22T13:55:22.288Z,6.45
2018-03-22T13:57:51.357Z,6.31
2018-03-22T14:00:20.990Z,6.16
2018-03-22T14:02:49.365Z,5.94
2018-03-22T14:05:17.722Z,5.72
2018-03-22T14:07:46.048Z,5.46
2018-03-22T14:10:14.350Z,5.41
2018-03-22T14:12:42.995Z,5.46
2018-03-22T14:15:11.341Z,5.43
2018-03-22T14:17:39.750Z,5.37
2018-03-22T14:20:11.423Z,5.31
2018-03-22T14:22:40.927Z,5.33
2018-03-22T14:25:09.248Z,5.31
2018-03-22T14:27:37.528Z,5.22
2018-03-22T14:30:08.695Z,5.22
2018-03-22T14:32:38.690Z,5.18
2018-03-22T14:35:07.157Z,5.11
2018-03-22T14:37:35.619Z,5.14
2018-03-22T14:40:05.866Z,5.06
2018-03-22T14:42:36.024Z,5.09
2018-03-22T14:45:04.515Z,5.11
2018-03-22T14:47:32.837Z,5.19
2018-03-22T14:50:01.282Z,5.21
2018-03-22T14:52:29.674Z,5.23
2018-03-22T14:54:59.207Z,5.19
2018-03-22T14:57:27.543Z,5.13
2018-03-22T14:59:57.605Z,5.05
2018-03-22T15:02:26.077Z,5.02
2018-03-22T15:04:54.405Z,5.00
2018-03-22T15:07:22.764Z,5.00
2018-03-22T15:09:52.116Z,4.92
2018-03-22T15:12:20.446Z,4.91
2018-03-22T15:14:48.776Z,4.86
2018-03-22T15:17:19.744Z,4.78
2018-03-22T15:19:48.248Z,4.75
2018-03-22T15:22:18.242Z,4.82
2018-03-22T15:24:46.615Z,4.81
2018-03-22T15:27:14.937Z,4.69
2018-03-22T15:29:45.370Z,4.74
2018-03-22T15:32:13.727Z,4.75
2018-03-22T15:34:43.696Z,4.73
2018-03-22T15:46:57.190Z,4.73
2018-03-22T15:49:25.642Z,4.70
2018-03-22T15:51:53.952Z,4.63
2018-03-22T15:54:23.283Z,4.58
2018-03-22T15:56:51.628Z,4.60
2018-03-22T15:59:20.717Z,4.57
2018-03-22T16:01:49.059Z,4.55
2018-03-22T16:04:19.896Z,4.52
2018-03-22T16:06:48.316Z,4.53
2018-03-22T16:09:18.347Z,4.52
2018-03-22T16:11:46.715Z,4.49
2018-03-22T16:14:15.302Z,4.43
2018-03-22T16:16:43.657Z,4.39
2018-03-22T16:19:11.997Z,4.33
2018-03-22T16:21:40.368Z,4.32
2018-03-22T16:24:08.850Z,4.29
2018-03-22T16:26:40.080Z,4.24
2018-03-22T16:29:10.192Z,4.21
2018-03-22T16:31:39.597Z,4.13
2018-03-22T16:34:08.162Z,4.12
2018-03-22T16:36:36.593Z,4.11
2018-03-22T16:39:05.082Z,4.02
2018-03-22T16:41:33.759Z,3.84
2018-03-22T16:44:02.216Z,3.66
2018-03-22T16:46:31.638Z,3.55
2018-03-22T16:49:01.023Z,3.47
2018-03-22T16:51:31.050Z,3.36
2018-03-22T16:53:59.480Z,3.11
2018-03-22T16:56:27.810Z,3.08
2018-03-22T16:58:56.176Z,3.08
2018-03-22T17:01:24.665Z,2.96
2018-03-22T17:03:53.787Z,2.89
2018-03-22T17:06:24.637Z,2.83
2018-03-22T17:08:53.421Z,2.78
2018-03-22T17:11:23.058Z,2.72
2018-03-22T17:13:51.507Z,2.69
2018-03-22T17:16:21.528Z,2.66
2018-03-22T17:18:51.588Z,2.64
2018-03-22T17:21:22.618Z,2.60
2018-03-22T17:23:52.677Z,2.52
2018-03-22T17:26:21.525Z,2.46
2018-03-22T17:28:49.919Z,2.44
2018-03-22T17:31:18.275Z,2.39
2018-03-22T17:33:48.853Z,2.28
2018-03-22T17:36:17.406Z,2.21
2018-03-22T17:38:46.691Z,2.20
2018-03-22T17:41:16.227Z,2.18
2018-03-22T17:43:44.648Z,2.15
2018-03-22T17:46:13.195Z,2.10
2018-03-22T17:48:41.674Z,2.05
2018-03-22T17:51:10.120Z,2.02
2018-03-22T17:53:39.872Z,2.04
2018-03-22T17:56:10.213Z,1.99
2018-03-22T17:58:38.622Z,1.97
2018-03-22T18:01:07.270Z,1.93
2018-03-22T18:03:37.419Z,1.86
2018-03-22T18:06:08.016Z,1.82
2018-03-22T18:08:38.979Z,1.77
2018-03-22T18:11:08.307Z,1.73
2018-03-22T18:13:36.890Z,1.74
2018-03-22T18:16:06.260Z,1.73
2018-03-22T18:18:34.668Z,1.73
2018-03-22T18:21:03.433Z,1.68
2018-03-22T18:23:33.505Z,1.66
2018-03-22T18:26:01.889Z,1.66
2018-03-22T18:28:32.399Z,1.63
2018-03-22T18:31:01.691Z,1.57
2018-03-22T18:33:30.251Z,1.56
2018-03-22T18:35:58.652Z,1.54
2018-03-22T18:38:27.061Z,1.53
2018-03-22T18:40:57.600Z,1.56
2018-03-22T18:43:26.001Z,1.56
2018-03-22T18:45:56.297Z,1.56
2018-03-22T18:48:27.199Z,1.56
2018-03-22T18:50:56.539Z,1.56
2018-03-22T18:53:25.821Z,1.55
2018-03-22T18:55:56.813Z,1.55
2018-03-22T18:58:25.368Z,1.55
2018-03-22T19:00:53.766Z,1.50
2018-03-22T19:03:22.256Z,1.45
2018-03-22T19:05:50.791Z,1.41
2018-03-22T19:08:19.309Z,1.40
2018-03-22T19:10:48.404Z,1.40
2018-03-22T19:13:16.852Z,1.41
2018-03-22T19:15:46.316Z,1.39
2018-03-22T19:18:14.772Z,1.35
2018-03-22T19:20:43.540Z,1.37
2018-03-22T19:23:14.618Z,1.38
2018-03-22T19:25:44.881Z,1.38
2018-03-22T19:28:15.791Z,1.38
2018-03-22T19:30:44.189Z,1.40
2018-03-22T19:33:14.355Z,1.42
2018-03-22T19:35:42.789Z,1.44
2018-03-22T19:38:11.460Z,1.43
2018-03-22T19:40:39.925Z,1.40
2018-03-22T19:43:10.476Z,1.34
2018-03-22T19:45:41.228Z,1.33
2018-03-22T20:01:12.581Z,1.36
2018-03-22T20:03:42.822Z,1.34
2018-03-22T20:06:11.266Z,1.35
2018-03-22T20:08:39.954Z,1.35
2018-03-22T20:11:08.453Z,1.35
2018-03-22T20:13:38.133Z,1.34
2018-03-22T20:16:06.605Z,1.34
2018-03-22T20:18:36.011Z,1.32
2018-03-22T20:21:04.710Z,1.32
2018-03-22T20:23:35.745Z,1.31
2018-03-22T20:26:04.314Z,1.34
2018-03-22T20:28:34.284Z,1.31
2018-03-22T20:31:04.365Z,1.29
2018-03-22T20:33:35.725Z,1.29
2018-03-22T20:36:04.101Z,1.29
2018-03-22T20:38:32.493Z,1.27
2018-03-22T20:41:01.032Z,1.26
2018-03-22T20:43:29.417Z,1.23
2018-03-22T20:45:58.180Z,1.22
2018-03-22T20:48:28.409Z,1.23
2018-03-22T20:50:56.886Z,1.22
2018-03-22T20:53:25.461Z,1.23
2018-03-22T20:55:53.908Z,1.23
2018-03-22T20:58:24.593Z,1.22
2018-03-22T21:00:54.113Z,1.21
2018-03-22T21:03:22.684Z,1.19
2018-03-22T21:05:51.253Z,1.19
2018-03-22T21:08:19.744Z,1.20
2018-03-22T21:10:50.954Z,1.20
2018-03-22T21:13:20.370Z,1.20
2018-03-22T21:15:50.522Z,1.21
2018-03-22T21:18:19.600Z,1.21
2018-03-22T21:20:48.155Z,1.22
2018-03-22T21:23:18.235Z,1.20
2018-03-22T21:25:47.018Z,1.21
2018-03-22T21:28:15.808Z,1.21
2018-03-22T21:30:46.234Z,1.21
2018-03-22T21:33:16.298Z,1.21
2018-03-22T21:35:44.665Z,1.19
2018-03-22T21:38:13.313Z,1.19
2018-03-22T21:40:43.644Z,1.20
2018-03-22T21:43:12.190Z,1.22
2018-03-22T21:45:40.851Z,1.23
2018-03-22T21:48:09.346Z,1.24
2018-03-22T21:50:50.247Z,1.25
2018-03-22T21:53:20.507Z,1.24
2018-03-22T21:55:51.574Z,1.23
2018-03-22T21:58:20.404Z,1.22
2018-03-22T22:00:48.754Z,1.22
2018-03-22T22:03:18.653Z,1.20
2018-03-22T22:05:47.213Z,1.22
2018-03-22T22:08:16.303Z,1.22
2018-03-22T22:10:44.846Z,1.24
2018-03-22T22:13:15.052Z,1.25
2018-03-22T22:15:43.479Z,1.26
2018-03-22T22:18:11.802Z,1.26
2018-03-22T22:20:40.202Z,1.26
2018-03-22T22:23:08.555Z,1.26
2018-03-22T22:25:37.747Z,1.27
2018-03-22T22:28:06.102Z,1.27
2018-03-22T22:30:37.494Z,1.24
2018-03-22T22:33:06.061Z,1.23
2018-03-22T22:35:34.387Z,1.23
2018-03-22T22:38:02.744Z,1.23
2018-03-22T22:40:31.062Z,1.24
2018-03-22T22:42:59.490Z,1.21
2018-03-22T22:45:27.952Z,1.21
2018-03-22T22:47:56.388Z,1.22
2018-03-22T22:50:26.325Z,1.24
2018-03-22T22:52:56.598Z,1.22
2018-03-22T22:55:25.971Z,1.22
2018-03-22T22:57:54.339Z,1.20
2018-03-22T23:00:22.664Z,1.20
2018-03-22T23:02:51.169Z,1.19
2018-03-22T23:05:19.533Z,1.20
2018-03-22T23:07:48.168Z,1.20
2018-03-22T23:10:16.510Z,1.20
2018-03-22T23:12:44.888Z,1.20
2018-03-22T23:15:13.345Z,1.21
2018-03-22T23:17:43.944Z,1.18
2018-03-22T23:20:12.301Z,1.17
2018-03-22T23:22:40.634Z,1.15
2018-03-22T23:25:09.078Z,1.15
2018-03-22T23:27:38.565Z,1.17
2018-03-22T23:30:08.707Z,1.18
2018-03-22T23:32:37.221Z,1.18
2018-03-22T23:35:05.727Z,1.19
2018-03-22T23:37:34.142Z,1.20
2018-03-22T23:40:02.592Z,1.21
2018-03-22T23:42:30.934Z,1.19
2018-03-22T23:44:59.225Z,1.17
2018-03-22T23:47:27.550Z,1.18
2018-03-22T23:49:55.870Z,1.18
2018-03-22T23:52:24.239Z,1.16
2018-03-22T23:54:52.517Z,1.16
2018-03-22T23:57:20.873Z,1.16
2018-03-22T23:59:49.160Z,1.16
